sensor_id;sensor_type;location;lat;lon;timestamp;pressure;altitude;pressure_sealevel;temperature;humidity
18436;BME280;9346;52.006;4.720;2022-07-17T00:01:32;102621.06;;;17.18;100.00
18436;BME280;9346;52.006;4.720;2022-07-17T00:03:59;102632.47;;;17.17;100.00
18436;BME280;9346;52.006;4.720;2022-07-17T00:06:28;102624.13;;;17.17;100.00
18436;BME280;9346;52.006;4.720;2022-07-17T00:08:55;102626.38;;;17.15;100.00
18436;BME280;9346;52.006;4.720;2022-07-17T00:11:22;102615.50;;;17.13;100.00
18436;BME280;9346;52.006;4.720;2022-07-17T00:13:51;102616.63;;;17.12;100.00
18436;BME280;9346;52.006;4.720;2022-07-17T00:16:18;102621.63;;;17.10;100.00
18436;BME280;9346;52.006;4.720;2022-07-17T00:18:45;102624.41;;;17.10;100.00
18436;BME280;9346;52.006;4.720;2022-07-17T00:21:12;102619.38;;;17.07;100.00
18436;BME280;9346;52.006;4.720;2022-07-17T00:23:40;102621.59;;;17.05;100.00
18436;BME280;9346;52.006;4.720;2022-07-17T00:26:08;102622.13;;;17.02;100.00
18436;BME280;9346;52.006;4.720;2022-07-17T00:28:35;102624.66;;;16.99;100.00
18436;BME280;9346;52.006;4.720;2022-07-17T00:31:02;102623.25;;;16.96;100.00
18436;BME280;9346;52.006;4.720;2022-07-17T00:33:29;102621.03;;;16.93;100.00
18436;BME280;9346;52.006;4.720;2022-07-17T00:35:56;102612.09;;;16.91;100.00
18436;BME280;9346;52.006;4.720;2022-07-17T00:38:23;102615.44;;;16.88;100.00
18436;BME280;9346;52.006;4.720;2022-07-17T00:40:54;102613.19;;;16.85;100.00
18436;BME280;9346;52.006;4.720;2022-07-17T00:43:22;102613.75;;;16.82;100.00
18436;BME280;9346;52.006;4.720;2022-07-17T00:45:58;102615.97;;;16.80;100.00
18436;BME280;9346;52.006;4.720;2022-07-17T00:48:25;102613.44;;;16.74;100.00
18436;BME280;9346;52.006;4.720;2022-07-17T00:50:53;102612.03;;;16.71;100.00
18436;BME280;9346;52.006;4.720;2022-07-17T00:53:20;102606.75;;;16.70;100.00
18436;BME280;9346;52.006;4.720;2022-07-17T00:55:48;102615.38;;;16.68;100.00
18436;BME280;9346;52.006;4.720;2022-07-17T00:58:24;102609.81;;;16.68;100.00
18436;BME280;9346;52.006;4.720;2022-07-17T01:00:52;102605.63;;;16.66;100.00
18436;BME280;9346;52.006;4.720;2022-07-17T01:03:21;102601.69;;;16.62;100.00
18436;BME280;9346;52.006;4.720;2022-07-17T01:05:48;102600.31;;;16.59;100.00
18436;BME280;9346;52.006;4.720;2022-07-17T01:08:15;102593.06;;;16.58;100.00
18436;BME280;9346;52.006;4.720;2022-07-17T01:10:43;102589.72;;;16.56;100.00
18436;BME280;9346;52.006;4.720;2022-07-17T01:13:10;102580.22;;;16.47;100.00
18436;BME280;9346;52.006;4.720;2022-07-17T01:15:39;102579.88;;;16.34;100.00
18436;BME280;9346;52.006;4.720;2022-07-17T01:18:08;102573.94;;;16.20;100.00
18436;BME280;9346;52.006;4.720;2022-07-17T01:20:37;102576.69;;;16.15;100.00
18436;BME280;9346;52.006;4.720;2022-07-17T01:23:07;102576.41;;;16.17;100.00
18436;BME280;9346;52.006;4.720;2022-07-17T01:25:34;102581.69;;;16.13;100.00
18436;BME280;9346;52.006;4.720;2022-07-17T01:28:02;102597.25;;;16.14;100.00
18436;BME280;9346;52.006;4.720;2022-07-17T01:30:30;102601.16;;;16.13;100.00
18436;BME280;9346;52.006;4.720;2022-07-17T01:32:57;102595.28;;;16.10;100.00
18436;BME280;9346;52.006;4.720;2022-07-17T01:35:24;102598.34;;;16.08;100.00
18436;BME280;9346;52.006;4.720;2022-07-17T01:37:51;102596.94;;;16.06;100.00
18436;BME280;9346;52.006;4.720;2022-07-17T01:40:19;102596.63;;;16.02;100.00
18436;BME280;9346;52.006;4.720;2022-07-17T01:42:48;102598.59;;;16.02;100.00
18436;BME280;9346;52.006;4.720;2022-07-17T01:45:16;102595.53;;;16.03;100.00
18436;BME280;9346;52.006;4.720;2022-07-17T01:47:44;102585.50;;;16.02;100.00
18436;BME280;9346;52.006;4.720;2022-07-17T01:50:12;102584.94;;;16.00;100.00
18436;BME280;9346;52.006;4.720;2022-07-17T01:52:41;102580.47;;;15.94;100.00
18436;BME280;9346;52.006;4.720;2022-07-17T01:55:10;102583.78;;;15.91;100.00
18436;BME280;9346;52.006;4.720;2022-07-17T01:57:41;102585.72;;;15.91;100.00
18436;BME280;9346;52.006;4.720;2022-07-17T02:00:11;102582.13;;;15.90;100.00
18436;BME280;9346;52.006;4.720;2022-07-17T02:02:39;102580.16;;;15.91;100.00
18436;BME280;9346;52.006;4.720;2022-07-17T02:05:06;102587.66;;;15.90;100.00
18436;BME280;9346;52.006;4.720;2022-07-17T02:07:34;102583.19;;;15.89;100.00
18436;BME280;9346;52.006;4.720;2022-07-17T02:10:06;102591.81;;;15.88;100.00
18436;BME280;9346;52.006;4.720;2022-07-17T02:12:33;102595.09;;;15.85;100.00
18436;BME280;9346;52.006;4.720;2022-07-17T02:15:01;102589.28;;;15.81;100.00
18436;BME280;9346;52.006;4.720;2022-07-17T02:17:28;102588.41;;;15.81;100.00
18436;BME280;9346;52.006;4.720;2022-07-17T02:19:55;102588.94;;;15.78;100.00
18436;BME280;9346;52.006;4.720;2022-07-17T02:22:22;102588.13;;;15.77;100.00
18436;BME280;9346;52.006;4.720;2022-07-17T02:24:50;102597.56;;;15.76;100.00
18436;BME280;9346;52.006;4.720;2022-07-17T02:27:17;102584.50;;;15.77;100.00
18436;BME280;9346;52.006;4.720;2022-07-17T02:29:44;102590.59;;;15.74;100.00
18436;BME280;9346;52.006;4.720;2022-07-17T02:32:12;102575.84;;;15.73;100.00
18436;BME280;9346;52.006;4.720;2022-07-17T02:34:39;102580.88;;;15.71;100.00
18436;BME280;9346;52.006;4.720;2022-07-17T02:37:06;102590.28;;;15.70;100.00
18436;BME280;9346;52.006;4.720;2022-07-17T02:39:33;102585.03;;;15.69;100.00
18436;BME280;9346;52.006;4.720;2022-07-17T02:42:00;102591.38;;;15.69;100.00
18436;BME280;9346;52.006;4.720;2022-07-17T02:44:27;102601.94;;;15.67;100.00
18436;BME280;9346;52.006;4.720;2022-07-17T02:46:54;102600.25;;;15.61;100.00
18436;BME280;9346;52.006;4.720;2022-07-17T02:49:23;102608.84;;;15.59;100.00
18436;BME280;9346;52.006;4.720;2022-07-17T02:51:50;102608.25;;;15.57;100.00
18436;BME280;9346;52.006;4.720;2022-07-17T02:54:17;102599.91;;;15.57;100.00
18436;BME280;9346;52.006;4.720;2022-07-17T02:56:44;102610.19;;;15.57;100.00
18436;BME280;9346;52.006;4.720;2022-07-17T02:59:11;102619.06;;;15.54;100.00
18436;BME280;9346;52.006;4.720;2022-07-17T03:01:38;102620.41;;;15.51;100.00
18436;BME280;9346;52.006;4.720;2022-07-17T03:04:05;102622.91;;;15.48;100.00
18436;BME280;9346;52.006;4.720;2022-07-17T03:06:33;102620.66;;;15.45;100.00
18436;BME280;9346;52.006;4.720;2022-07-17T03:09:01;102620.06;;;15.43;100.00
18436;BME280;9346;52.006;4.720;2022-07-17T03:11:28;102626.72;;;15.42;100.00
18436;BME280;9346;52.006;4.720;2022-07-17T03:13:55;102618.66;;;15.40;100.00
18436;BME280;9346;52.006;4.720;2022-07-17T03:16:22;102623.38;;;15.40;100.00
18436;BME280;9346;52.006;4.720;2022-07-17T03:18:49;102621.69;;;15.39;100.00
18436;BME280;9346;52.006;4.720;2022-07-17T03:21:16;102610.84;;;15.37;100.00
18436;BME280;9346;52.006;4.720;2022-07-17T03:23:44;102613.84;;;15.36;100.00
18436;BME280;9346;52.006;4.720;2022-07-17T03:26:11;102615.78;;;15.35;100.00
18436;BME280;9346;52.006;4.720;2022-07-17T03:28:38;102616.06;;;15.34;100.00
18436;BME280;9346;52.006;4.720;2022-07-17T03:31:05;102611.59;;;15.33;100.00
18436;BME280;9346;52.006;4.720;2022-07-17T03:33:32;102619.34;;;15.31;100.00
18436;BME280;9346;52.006;4.720;2022-07-17T03:35:59;102623.50;;;15.28;100.00
18436;BME280;9346;52.006;4.720;2022-07-17T03:38:26;102622.09;;;15.26;100.00
18436;BME280;9346;52.006;4.720;2022-07-17T03:40:55;102617.06;;;15.23;100.00
18436;BME280;9346;52.006;4.720;2022-07-17T03:43:21;102611.78;;;15.21;100.00
18436;BME280;9346;52.006;4.720;2022-07-17T03:45:48;102616.47;;;15.21;100.00
18436;BME280;9346;52.006;4.720;2022-07-17T03:48:15;102616.47;;;15.21;100.00
18436;BME280;9346;52.006;4.720;2022-07-17T03:50:43;102613.69;;;15.21;100.00
18436;BME280;9346;52.006;4.720;2022-07-17T03:53:10;102618.44;;;15.20;100.00
18436;BME280;9346;52.006;4.720;2022-07-17T03:55:37;102617.59;;;15.20;100.00
18436;BME280;9346;52.006;4.720;2022-07-17T03:58:05;102615.91;;;15.19;100.00
18436;BME280;9346;52.006;4.720;2022-07-17T04:00:32;102607.59;;;15.19;100.00
18436;BME280;9346;52.006;4.720;2022-07-17T04:02:59;102608.69;;;15.18;100.00
18436;BME280;9346;52.006;4.720;2022-07-17T04:05:26;102610.38;;;15.19;100.00
18436;BME280;9346;52.006;4.720;2022-07-17T04:07:53;102610.63;;;15.17;100.00
18436;BME280;9346;52.006;4.720;2022-07-17T04:10:20;102622.81;;;15.16;100.00
18436;BME280;9346;52.006;4.720;2022-07-17T04:12:47;102619.22;;;15.16;100.00
18436;BME280;9346;52.006;4.720;2022-07-17T04:15:16;102611.41;;;15.13;100.00
18436;BME280;9346;52.006;4.720;2022-07-17T04:18:04;102626.63;;;15.10;100.00
18436;BME280;9346;52.006;4.720;2022-07-17T04:20:31;102622.78;;;15.11;100.00
18436;BME280;9346;52.006;4.720;2022-07-17T04:22:58;102624.19;;;15.14;100.00
18436;BME280;9346;52.006;4.720;2022-07-17T04:25:25;102629.22;;;15.17;100.00
18436;BME280;9346;52.006;4.720;2022-07-17T04:27:52;102631.13;;;15.16;100.00
18436;BME280;9346;52.006;4.720;2022-07-17T04:30:20;102626.44;;;15.17;100.00
18436;BME280;9346;52.006;4.720;2022-07-17T04:32:47;102632.25;;;15.15;100.00
18436;BME280;9346;52.006;4.720;2022-07-17T04:35:15;102627.56;;;15.16;100.00
18436;BME280;9346;52.006;4.720;2022-07-17T04:37:42;102639.72;;;15.15;100.00
18436;BME280;9346;52.006;4.720;2022-07-17T04:40:10;102641.69;;;15.14;100.00
18436;BME280;9346;52.006;4.720;2022-07-17T04:42:38;102635.53;;;15.12;100.00
18436;BME280;9346;52.006;4.720;2022-07-17T04:45:06;102625.81;;;15.10;100.00
18436;BME280;9346;52.006;4.720;2022-07-17T04:47:35;102623.31;;;15.08;100.00
18436;BME280;9346;52.006;4.720;2022-07-17T04:50:03;102614.66;;;15.05;100.00
18436;BME280;9346;52.006;4.720;2022-07-17T04:52:30;102613.50;;;15.01;100.00
18436;BME280;9346;52.006;4.720;2022-07-17T04:54:57;102612.38;;;15.02;100.00
18436;BME280;9346;52.006;4.720;2022-07-17T04:57:24;102604.31;;;15.00;100.00
18436;BME280;9346;52.006;4.720;2022-07-17T04:59:51;102614.03;;;14.98;100.00
18436;BME280;9346;52.006;4.720;2022-07-17T05:02:19;102613.50;;;15.01;100.00
18436;BME280;9346;52.006;4.720;2022-07-17T05:04:47;102622.97;;;15.05;100.00
18436;BME280;9346;52.006;4.720;2022-07-17T05:07:14;102615.50;;;15.05;100.00
18436;BME280;9346;52.006;4.720;2022-07-17T05:09:42;102620.19;;;15.05;100.00
18436;BME280;9346;52.006;4.720;2022-07-17T05:12:09;102608.81;;;15.01;100.00
18436;BME280;9346;52.006;4.720;2022-07-17T05:14:36;102605.94;;;14.96;100.00
18436;BME280;9346;52.006;4.720;2022-07-17T05:17:03;102617.91;;;14.97;100.00
18436;BME280;9346;52.006;4.720;2022-07-17T05:19:30;102614.34;;;15.01;100.00
18436;BME280;9346;52.006;4.720;2022-07-17T05:21:58;102628.25;;;15.06;100.00
18436;BME280;9346;52.006;4.720;2022-07-17T05:24:25;102623.03;;;15.10;100.00
18436;BME280;9346;52.006;4.720;2022-07-17T05:26:52;102622.00;;;15.16;100.00
18436;BME280;9346;52.006;4.720;2022-07-17T05:29:20;102621.47;;;15.19;100.00
18436;BME280;9346;52.006;4.720;2022-07-17T05:31:47;102616.22;;;15.22;100.00
18436;BME280;9346;52.006;4.720;2022-07-17T05:34:14;102621.56;;;15.29;100.00
18436;BME280;9346;52.006;4.720;2022-07-17T05:36:41;102620.47;;;15.30;100.00
18436;BME280;9346;52.006;4.720;2022-07-17T05:39:10;102625.22;;;15.34;100.00
18436;BME280;9346;52.006;4.720;2022-07-17T05:41:37;102633.28;;;15.36;100.00
18436;BME280;9346;52.006;4.720;2022-07-17T05:44:05;102635.63;;;15.44;100.00
18436;BME280;9346;52.006;4.720;2022-07-17T05:46:33;102629.53;;;15.47;100.00
18436;BME280;9346;52.006;4.720;2022-07-17T05:49:00;102626.28;;;15.55;100.00
18436;BME280;9346;52.006;4.720;2022-07-17T05:51:27;102628.03;;;15.66;100.00
18436;BME280;9346;52.006;4.720;2022-07-17T05:53:55;102631.75;;;15.77;100.00
18436;BME280;9346;52.006;4.720;2022-07-17T05:56:23;102621.28;;;15.89;100.00
18436;BME280;9346;52.006;4.720;2022-07-17T05:58:50;102628.28;;;15.96;100.00
18436;BME280;9346;52.006;4.720;2022-07-17T06:01:17;102630.56;;;16.04;100.00
18436;BME280;9346;52.006;4.720;2022-07-17T06:03:44;102638.94;;;16.09;100.00
18436;BME280;9346;52.006;4.720;2022-07-17T06:06:11;102635.06;;;16.15;100.00
18436;BME280;9346;52.006;4.720;2022-07-17T06:08:38;102642.66;;;16.25;100.00
18436;BME280;9346;52.006;4.720;2022-07-17T06:11:05;102640.19;;;16.33;100.00
18436;BME280;9346;52.006;4.720;2022-07-17T06:13:35;102646.06;;;16.37;100.00
18436;BME280;9346;52.006;4.720;2022-07-17T06:16:02;102644.47;;;16.46;100.00
18436;BME280;9346;52.006;4.720;2022-07-17T06:18:29;102650.38;;;16.59;100.00
18436;BME280;9346;52.006;4.720;2022-07-17T06:20:56;102654.00;;;16.65;100.00
18436;BME280;9346;52.006;4.720;2022-07-17T06:23:23;102668.81;;;16.75;100.00
18436;BME280;9346;52.006;4.720;2022-07-17T06:25:50;102663.28;;;16.85;100.00
18436;BME280;9346;52.006;4.720;2022-07-17T06:28:17;102661.41;;;16.96;100.00
18436;BME280;9346;52.006;4.720;2022-07-17T06:30:45;102665.88;;;17.07;100.00
18436;BME280;9346;52.006;4.720;2022-07-17T06:33:13;102670.06;;;17.14;100.00
18436;BME280;9346;52.006;4.720;2022-07-17T06:35:40;102665.66;;;17.23;100.00
18436;BME280;9346;52.006;4.720;2022-07-17T06:38:06;102668.44;;;17.23;100.00
18436;BME280;9346;52.006;4.720;2022-07-17T06:40:36;102679.03;;;17.31;100.00
18436;BME280;9346;52.006;4.720;2022-07-17T06:43:04;102677.38;;;17.40;100.00
18436;BME280;9346;52.006;4.720;2022-07-17T06:45:31;102678.56;;;17.54;100.00
18436;BME280;9346;52.006;4.720;2022-07-17T06:48:00;102679.97;;;17.67;100.00
18436;BME280;9346;52.006;4.720;2022-07-17T06:50:27;102686.38;;;17.77;100.00
18436;BME280;9346;52.006;4.720;2022-07-17T06:52:55;102685.00;;;17.85;100.00
18436;BME280;9346;52.006;4.720;2022-07-17T06:55:23;102683.56;;;17.93;100.00
18436;BME280;9346;52.006;4.720;2022-07-17T06:57:50;102682.75;;;18.02;100.00
18436;BME280;9346;52.006;4.720;2022-07-17T07:00:17;102683.88;;;18.11;100.00
18436;BME280;9346;52.006;4.720;2022-07-17T07:02:45;102679.38;;;18.20;100.00
18436;BME280;9346;52.006;4.720;2022-07-17T07:05:13;102677.97;;;18.33;100.00
18436;BME280;9346;52.006;4.720;2022-07-17T07:07:40;102689.72;;;18.45;100.00
18436;BME280;9346;52.006;4.720;2022-07-17T07:10:08;102689.13;;;18.53;100.00
18436;BME280;9346;52.006;4.720;2022-07-17T07:12:35;102687.41;;;18.62;100.00
18436;BME280;9346;52.006;4.720;2022-07-17T07:15:03;102694.09;;;18.71;100.00
18436;BME280;9346;52.006;4.720;2022-07-17T07:17:30;102702.44;;;18.81;100.00
18436;BME280;9346;52.006;4.720;2022-07-17T07:19:58;102695.44;;;18.83;100.00
18436;BME280;9346;52.006;4.720;2022-07-17T07:22:27;102703.53;;;18.85;100.00
18436;BME280;9346;52.006;4.720;2022-07-17T07:24:54;102697.38;;;18.88;100.00
18436;BME280;9346;52.006;4.720;2022-07-17T07:27:21;102698.19;;;18.93;100.00
18436;BME280;9346;52.006;4.720;2022-07-17T07:29:47;102694.25;;;18.99;100.00
18436;BME280;9346;52.006;4.720;2022-07-17T07:32:16;102688.09;;;19.02;100.00
18436;BME280;9346;52.006;4.720;2022-07-17T07:34:43;102690.56;;;19.09;100.00
18436;BME280;9346;52.006;4.720;2022-07-17T07:37:10;102689.41;;;19.15;100.00
18436;BME280;9346;52.006;4.720;2022-07-17T07:39:39;102686.63;;;19.20;100.00
18436;BME280;9346;52.006;4.720;2022-07-17T07:42:06;102692.47;;;19.28;100.00
18436;BME280;9346;52.006;4.720;2022-07-17T07:44:34;102693.81;;;19.36;100.00
18436;BME280;9346;52.006;4.720;2022-07-17T07:47:01;102679.22;;;19.44;100.00
18436;BME280;9346;52.006;4.720;2022-07-17T07:49:28;102681.16;;;19.48;100.00
18436;BME280;9346;52.006;4.720;2022-07-17T07:51:55;102680.84;;;19.55;100.00
18436;BME280;9346;52.006;4.720;2022-07-17T07:54:22;102679.09;;;19.64;100.00
18436;BME280;9346;52.006;4.720;2022-07-17T07:56:51;102673.66;;;19.77;100.00
18436;BME280;9346;52.006;4.720;2022-07-17T07:59:19;102680.88;;;19.88;100.00
18436;BME280;9346;52.006;4.720;2022-07-17T08:01:46;102684.16;;;19.96;100.00
18436;BME280;9346;52.006;4.720;2022-07-17T08:04:13;102682.16;;;19.96;100.00
18436;BME280;9346;52.006;4.720;2022-07-17T08:06:41;102684.38;;;19.99;100.00
18436;BME280;9346;52.006;4.720;2022-07-17T08:09:08;102688.28;;;20.03;100.00
18436;BME280;9346;52.006;4.720;2022-07-17T08:11:35;102682.41;;;20.05;100.00
18436;BME280;9346;52.006;4.720;2022-07-17T08:14:04;102687.09;;;20.09;100.00
18436;BME280;9346;52.006;4.720;2022-07-17T08:16:31;102692.38;;;20.16;100.00
18436;BME280;9346;52.006;4.720;2022-07-17T08:18:58;102681.97;;;20.21;100.00
18436;BME280;9346;52.006;4.720;2022-07-17T08:21:25;102669.59;;;20.27;100.00
18436;BME280;9346;52.006;4.720;2022-07-17T08:23:51;102670.63;;;20.36;100.00
18436;BME280;9346;52.006;4.720;2022-07-17T08:26:18;102672.19;;;20.47;100.00
18436;BME280;9346;52.006;4.720;2022-07-17T08:28:46;102679.47;;;20.48;100.00
18436;BME280;9346;52.006;4.720;2022-07-17T08:31:15;102678.63;;;20.48;100.00
18436;BME280;9346;52.006;4.720;2022-07-17T08:33:42;102671.59;;;20.50;100.00
18436;BME280;9346;52.006;4.720;2022-07-17T08:36:09;102666.47;;;20.57;100.00
18436;BME280;9346;52.006;4.720;2022-07-17T08:38:36;102671.72;;;20.64;100.00
18436;BME280;9346;52.006;4.720;2022-07-17T08:41:03;102666.59;;;20.71;100.00
18436;BME280;9346;52.006;4.720;2022-07-17T08:43:30;102663.50;;;20.72;100.00
18436;BME280;9346;52.006;4.720;2022-07-17T08:45:58;102662.44;;;20.68;100.00
18436;BME280;9346;52.006;4.720;2022-07-17T08:48:27;102666.91;;;20.69;100.00
18436;BME280;9346;52.006;4.720;2022-07-17T08:50:58;102673.16;;;20.61;100.00
18436;BME280;9346;52.006;4.720;2022-07-17T08:53:26;102665.84;;;20.65;100.00
18436;BME280;9346;52.006;4.720;2022-07-17T08:55:53;102661.25;;;20.74;100.00
18436;BME280;9346;52.006;4.720;2022-07-17T08:58:20;102668.63;;;20.89;100.00
18436;BME280;9346;52.006;4.720;2022-07-17T09:00:48;102664.66;;;20.95;100.00
18436;BME280;9346;52.006;4.720;2022-07-17T09:03:15;102667.69;;;20.98;100.00
18436;BME280;9346;52.006;4.720;2022-07-17T09:05:45;102681.38;;;21.00;100.00
18436;BME280;9346;52.006;4.720;2022-07-17T09:08:17;102677.69;;;21.04;100.00
18436;BME280;9346;52.006;4.720;2022-07-17T09:10:47;102667.25;;;21.10;100.00
18436;BME280;9346;52.006;4.720;2022-07-17T09:13:19;102667.94;;;21.20;100.00
18436;BME280;9346;52.006;4.720;2022-07-17T09:15:48;102669.28;;;21.23;100.00
18436;BME280;9346;52.006;4.720;2022-07-17T09:18:16;102668.19;;;21.24;100.00
18436;BME280;9346;52.006;4.720;2022-07-17T09:20:48;102676.28;;;21.25;100.00
18436;BME280;9346;52.006;4.720;2022-07-17T09:23:17;102670.34;;;21.27;100.00
18436;BME280;9346;52.006;4.720;2022-07-17T09:25:47;102665.59;;;21.27;100.00
18436;BME280;9346;52.006;4.720;2022-07-17T09:28:15;102670.00;;;21.33;100.00
18436;BME280;9346;52.006;4.720;2022-07-17T09:30:44;102672.09;;;21.41;100.00
18436;BME280;9346;52.006;4.720;2022-07-17T09:33:14;102676.72;;;21.51;100.00
18436;BME280;9346;52.006;4.720;2022-07-17T09:35:51;102680.53;;;21.60;100.00
18436;BME280;9346;52.006;4.720;2022-07-17T09:38:29;102677.94;;;21.63;100.00
18436;BME280;9346;52.006;4.720;2022-07-17T09:41:04;102667.84;;;21.62;100.00
18436;BME280;9346;52.006;4.720;2022-07-17T09:43:52;102668.16;;;21.61;100.00
18436;BME280;9346;52.006;4.720;2022-07-17T09:46:23;102672.00;;;21.65;100.00
18436;BME280;9346;52.006;4.720;2022-07-17T09:48:52;102669.50;;;21.63;100.00
18436;BME280;9346;52.006;4.720;2022-07-17T09:51:23;102671.72;;;21.66;100.00
18436;BME280;9346;52.006;4.720;2022-07-17T09:53:52;102667.13;;;21.75;99.51
18436;BME280;9346;52.006;4.720;2022-07-17T09:56:21;102668.16;;;21.79;100.00
18436;BME280;9346;52.006;4.720;2022-07-17T09:58:51;102671.41;;;21.86;100.00
18436;BME280;9346;52.006;4.720;2022-07-17T10:01:22;102676.09;;;21.91;100.00
18436;BME280;9346;52.006;4.720;2022-07-17T10:03:49;102666.16;;;21.98;100.00
18436;BME280;9346;52.006;4.720;2022-07-17T10:06:19;102679.69;;;22.10;100.00
18436;BME280;9346;52.006;4.720;2022-07-17T10:08:48;102667.84;;;22.13;100.00
18436;BME280;9346;52.006;4.720;2022-07-17T10:11:15;102668.09;;;22.17;100.00
18436;BME280;9346;52.006;4.720;2022-07-17T10:13:45;102668.50;;;22.24;100.00
18436;BME280;9346;52.006;4.720;2022-07-17T10:16:13;102670.16;;;22.25;100.00
18436;BME280;9346;52.006;4.720;2022-07-17T10:18:41;102676.09;;;22.23;100.00
18436;BME280;9346;52.006;4.720;2022-07-17T10:21:15;102673.28;;;22.23;100.00
18436;BME280;9346;52.006;4.720;2022-07-17T10:26:33;102668.31;;;22.34;100.00
18436;BME280;9346;52.006;4.720;2022-07-17T10:29:01;102670.19;;;22.38;100.00
18436;BME280;9346;52.006;4.720;2022-07-17T10:31:30;102670.94;;;22.44;100.00
18436;BME280;9346;52.006;4.720;2022-07-17T10:33:58;102674.78;;;22.48;100.00
18436;BME280;9346;52.006;4.720;2022-07-17T10:36:35;102684.31;;;22.52;100.00
18436;BME280;9346;52.006;4.720;2022-07-17T10:39:13;102675.75;;;22.57;100.00
18436;BME280;9346;52.006;4.720;2022-07-17T10:41:57;102690.97;;;22.69;100.00
18436;BME280;9346;52.006;4.720;2022-07-17T10:44:25;102675.03;;;22.78;100.00
18436;BME280;9346;52.006;4.720;2022-07-17T10:46:54;102684.63;;;22.91;100.00
18436;BME280;9346;52.006;4.720;2022-07-17T10:49:22;102672.13;;;22.97;100.00
18436;BME280;9346;52.006;4.720;2022-07-17T10:51:49;102683.78;;;23.04;98.37
18436;BME280;9346;52.006;4.720;2022-07-17T10:54:17;102678.88;;;22.96;97.71
18436;BME280;9346;52.006;4.720;2022-07-17T10:56:46;102680.13;;;22.90;99.15
18436;BME280;9346;52.006;4.720;2022-07-17T10:59:14;102691.06;;;22.91;100.00
18436;BME280;9346;52.006;4.720;2022-07-17T11:01:41;102689.41;;;22.90;100.00
18436;BME280;9346;52.006;4.720;2022-07-17T11:04:08;102682.44;;;23.01;100.00
18436;BME280;9346;52.006;4.720;2022-07-17T11:06:37;102677.72;;;23.10;100.00
18436;BME280;9346;52.006;4.720;2022-07-17T11:09:06;102687.91;;;23.20;100.00
18436;BME280;9346;52.006;4.720;2022-07-17T11:11:39;102683.94;;;23.21;100.00
18436;BME280;9346;52.006;4.720;2022-07-17T11:14:09;102684.59;;;23.18;97.95
18436;BME280;9346;52.006;4.720;2022-07-17T11:16:37;102682.41;;;23.15;99.74
18436;BME280;9346;52.006;4.720;2022-07-17T11:19:05;102682.72;;;23.27;100.00
18436;BME280;9346;52.006;4.720;2022-07-17T11:21:32;102681.97;;;23.35;98.89
18436;BME280;9346;52.006;4.720;2022-07-17T11:24:00;102682.50;;;23.37;99.97
18436;BME280;9346;52.006;4.720;2022-07-17T11:26:27;102670.63;;;23.40;100.00
18436;BME280;9346;52.006;4.720;2022-07-17T11:28:55;102669.34;;;23.46;100.00
18436;BME280;9346;52.006;4.720;2022-07-17T11:31:26;102672.13;;;23.59;99.88
18436;BME280;9346;52.006;4.720;2022-07-17T11:33:54;102662.06;;;23.67;99.55
18436;BME280;9346;52.006;4.720;2022-07-17T11:36:23;102663.44;;;23.69;97.54
18436;BME280;9346;52.006;4.720;2022-07-17T11:38:51;102665.63;;;23.72;95.98
18436;BME280;9346;52.006;4.720;2022-07-17T11:41:18;102668.22;;;23.69;92.82
18436;BME280;9346;52.006;4.720;2022-07-17T11:43:46;102681.75;;;23.67;92.08
18436;BME280;9346;52.006;4.720;2022-07-17T11:46:14;102674.88;;;23.73;92.74
18436;BME280;9346;52.006;4.720;2022-07-17T11:48:44;102670.03;;;23.87;90.69
18436;BME280;9346;52.006;4.720;2022-07-17T11:51:11;102676.06;;;23.94;89.45
18436;BME280;9346;52.006;4.720;2022-07-17T11:53:39;102682.78;;;23.93;89.68
18436;BME280;9346;52.006;4.720;2022-07-17T11:56:07;102673.25;;;23.94;85.54
18436;BME280;9346;52.006;4.720;2022-07-17T11:58:43;102671.78;;;23.96;86.31
18436;BME280;9346;52.006;4.720;2022-07-17T12:01:11;102687.44;;;24.11;85.16
18436;BME280;9346;52.006;4.720;2022-07-17T12:03:38;102683.88;;;24.19;84.92
18436;BME280;9346;52.006;4.720;2022-07-17T12:06:07;102689.88;;;24.26;84.25
18436;BME280;9346;52.006;4.720;2022-07-17T12:08:34;102675.25;;;24.24;80.72
18436;BME280;9346;52.006;4.720;2022-07-17T12:11:04;102669.63;;;24.24;83.09
18436;BME280;9346;52.006;4.720;2022-07-17T12:13:39;102663.88;;;24.29;83.85
18436;BME280;9346;52.006;4.720;2022-07-17T12:16:27;102675.38;;;24.50;84.54
18436;BME280;9346;52.006;4.720;2022-07-17T12:19:03;102666.22;;;24.66;83.36
18436;BME280;9346;52.006;4.720;2022-07-17T12:21:33;102657.97;;;24.70;82.02
18436;BME280;9346;52.006;4.720;2022-07-17T12:24:02;102657.47;;;24.76;83.25
18436;BME280;9346;52.006;4.720;2022-07-17T12:26:31;102658.84;;;24.87;85.53
18436;BME280;9346;52.006;4.720;2022-07-17T12:28:58;102662.16;;;24.98;85.61
18436;BME280;9346;52.006;4.720;2022-07-17T12:31:25;102655.25;;;25.12;84.74
18436;BME280;9346;52.006;4.720;2022-07-17T12:33:53;102642.84;;;25.30;82.51
18436;BME280;9346;52.006;4.720;2022-07-17T12:36:22;102649.16;;;25.44;82.00
18436;BME280;9346;52.006;4.720;2022-07-17T12:38:51;102637.06;;;25.52;81.21
18436;BME280;9346;52.006;4.720;2022-07-17T12:41:18;102645.72;;;25.64;83.38
18436;BME280;9346;52.006;4.720;2022-07-17T12:43:46;102643.22;;;25.71;81.91
18436;BME280;9346;52.006;4.720;2022-07-17T12:46:13;102645.00;;;25.67;81.79
18436;BME280;9346;52.006;4.720;2022-07-17T12:48:42;102645.84;;;25.76;81.12
18436;BME280;9346;52.006;4.720;2022-07-17T12:51:09;102637.34;;;25.85;81.15
18436;BME280;9346;52.006;4.720;2022-07-17T12:53:39;102641.22;;;25.97;82.09
18436;BME280;9346;52.006;4.720;2022-07-17T12:56:09;102638.84;;;26.17;82.69
18436;BME280;9346;52.006;4.720;2022-07-17T12:58:36;102636.78;;;26.34;81.01